sensor_id;sensor_type;location;lat;lon;timestamp;temperature;humidity
43541;DHT22;29549;40.386;-3.710;2023-05-10T00:03:20;21.60;42.80
43541;DHT22;29549;40.386;-3.710;2023-05-10T00:13:21;21.40;43.70
43541;DHT22;29549;40.386;-3.710;2023-05-10T00:23:22;21.20;44.40
43541;DHT22;29549;40.386;-3.710;2023-05-10T00:33:22;21.20;44.80
43541;DHT22;29549;40.386;-3.710;2023-05-10T00:43:23;20.90;45.30
43541;DHT22;29549;40.386;-3.710;2023-05-10T00:53:24;20.70;45.50
43541;DHT22;29549;40.386;-3.710;2023-05-10T01:03:37;20.50;46.00
43541;DHT22;29549;40.386;-3.710;2023-05-10T01:13:38;20.40;46.20
43541;DHT22;29549;40.386;-3.710;2023-05-10T01:23:51;20.10;46.70
43541;DHT22;29549;40.386;-3.710;2023-05-10T01:34:01;19.80;47.80
43541;DHT22;29549;40.386;-3.710;2023-05-10T01:54:04;19.20;49.50
43541;DHT22;29549;40.386;-3.710;2023-05-10T02:04:06;19.20;49.80
43541;DHT22;29549;40.386;-3.710;2023-05-10T02:14:08;18.90;50.70
43541;DHT22;29549;40.386;-3.710;2023-05-10T02:24:09;18.80;50.70
43541;DHT22;29549;40.386;-3.710;2023-05-10T02:34:11;18.80;49.90
43541;DHT22;29549;40.386;-3.710;2023-05-10T02:44:11;18.70;50.00
43541;DHT22;29549;40.386;-3.710;2023-05-10T02:54:22;18.50;50.40
43541;DHT22;29549;40.386;-3.710;2023-05-10T03:04:24;18.30;50.10
43541;DHT22;29549;40.386;-3.710;2023-05-10T03:24:44;18.20;49.80
43541;DHT22;29549;40.386;-3.710;2023-05-10T03:34:45;17.90;49.80
43541;DHT22;29549;40.386;-3.710;2023-05-10T03:44:46;17.90;49.70
43541;DHT22;29549;40.386;-3.710;2023-05-10T03:54:46;17.70;49.80
43541;DHT22;29549;40.386;-3.710;2023-05-10T04:04:47;17.40;50.60
43541;DHT22;29549;40.386;-3.710;2023-05-10T04:14:48;17.40;50.20
43541;DHT22;29549;40.386;-3.710;2023-05-10T04:24:49;17.20;50.90
43541;DHT22;29549;40.386;-3.710;2023-05-10T04:34:49;17.10;51.20
43541;DHT22;29549;40.386;-3.710;2023-05-10T04:44:51;17.20;50.90
43541;DHT22;29549;40.386;-3.710;2023-05-10T04:54:52;17.10;51.00
43541;DHT22;29549;40.386;-3.710;2023-05-10T05:04:53;16.90;51.20
43541;DHT22;29549;40.386;-3.710;2023-05-10T05:14:53;16.90;51.30
43541;DHT22;29549;40.386;-3.710;2023-05-10T05:24:54;16.80;51.30
43541;DHT22;29549;40.386;-3.710;2023-05-10T05:34:55;16.80;51.30
43541;DHT22;29549;40.386;-3.710;2023-05-10T05:44:55;16.70;51.40
43541;DHT22;29549;40.386;-3.710;2023-05-10T05:54:56;16.70;51.40
43541;DHT22;29549;40.386;-3.710;2023-05-10T06:04:57;16.80;51.30
43541;DHT22;29549;40.386;-3.710;2023-05-10T06:14:57;16.80;51.30
43541;DHT22;29549;40.386;-3.710;2023-05-10T06:24:58;16.70;51.70
43541;DHT22;29549;40.386;-3.710;2023-05-10T06:34:59;16.80;51.10
43541;DHT22;29549;40.386;-3.710;2023-05-10T06:44:59;17.20;50.60
43541;DHT22;29549;40.386;-3.710;2023-05-10T06:55:00;17.50;49.40
43541;DHT22;29549;40.386;-3.710;2023-05-10T07:05:00;18.00;48.70
43541;DHT22;29549;40.386;-3.710;2023-05-10T07:15:02;18.50;47.10
43541;DHT22;29549;40.386;-3.710;2023-05-10T07:25:03;18.80;46.50
43541;DHT22;29549;40.386;-3.710;2023-05-10T07:35:04;19.30;45.20
43541;DHT22;29549;40.386;-3.710;2023-05-10T07:45:05;19.70;43.60
43541;DHT22;29549;40.386;-3.710;2023-05-10T07:55:06;19.80;42.90
43541;DHT22;29549;40.386;-3.710;2023-05-10T08:05:07;19.90;42.70
43541;DHT22;29549;40.386;-3.710;2023-05-10T08:25:09;20.80;41.10
43541;DHT22;29549;40.386;-3.710;2023-05-10T08:35:09;21.00;39.70
43541;DHT22;29549;40.386;-3.710;2023-05-10T08:45:10;20.70;39.90
43541;DHT22;29549;40.386;-3.710;2023-05-10T08:55:11;21.00;39.00
43541;DHT22;29549;40.386;-3.710;2023-05-10T09:05:12;21.10;39.00
43541;DHT22;29549;40.386;-3.710;2023-05-10T09:15:15;21.30;38.10
43541;DHT22;29549;40.386;-3.710;2023-05-10T09:25:16;21.70;38.00
43541;DHT22;29549;40.386;-3.710;2023-05-10T09:35:17;21.10;37.30
43541;DHT22;29549;40.386;-3.710;2023-05-10T09:45:18;21.70;37.00
43541;DHT22;29549;40.386;-3.710;2023-05-10T09:55:22;22.10;35.40
43541;DHT22;29549;40.386;-3.710;2023-05-10T10:05:33;21.70;36.40
43541;DHT22;29549;40.386;-3.710;2023-05-10T10:15:34;21.80;35.50
43541;DHT22;29549;40.386;-3.710;2023-05-10T10:25:35;21.60;35.20
43541;DHT22;29549;40.386;-3.710;2023-05-10T10:35:35;21.50;35.10
43541;DHT22;29549;40.386;-3.710;2023-05-10T10:45:38;21.70;34.40
43541;DHT22;29549;40.386;-3.710;2023-05-10T10:55:46;21.90;34.50
43541;DHT22;29549;40.386;-3.710;2023-05-10T11:05:49;21.90;34.20
43541;DHT22;29549;40.386;-3.710;2023-05-10T11:15:52;22.00;34.20
43541;DHT22;29549;40.386;-3.710;2023-05-10T11:25:53;21.80;34.10
43541;DHT22;29549;40.386;-3.710;2023-05-10T11:35:54;22.20;33.80
43541;DHT22;29549;40.386;-3.710;2023-05-10T11:45:55;22.50;32.90
43541;DHT22;29549;40.386;-3.710;2023-05-10T11:55:55;22.80;32.40
43541;DHT22;29549;40.386;-3.710;2023-05-10T12:06:02;23.00;32.10
43541;DHT22;29549;40.386;-3.710;2023-05-10T12:16:12;23.20;31.00
43541;DHT22;29549;40.386;-3.710;2023-05-10T12:26:12;23.10;31.10
43541;DHT22;29549;40.386;-3.710;2023-05-10T12:36:14;23.10;30.40
43541;DHT22;29549;40.386;-3.710;2023-05-10T12:46:16;23.20;30.00
43541;DHT22;29549;40.386;-3.710;2023-05-10T12:56:16;23.50;29.70
43541;DHT22;29549;40.386;-3.710;2023-05-10T13:06:17;23.60;28.90
43541;DHT22;29549;40.386;-3.710;2023-05-10T13:16:18;23.60;28.60
43541;DHT22;29549;40.386;-3.710;2023-05-10T13:26:18;23.80;27.60
43541;DHT22;29549;40.386;-3.710;2023-05-10T13:36:19;23.90;27.30
43541;DHT22;29549;40.386;-3.710;2023-05-10T13:46:19;23.80;26.80
43541;DHT22;29549;40.386;-3.710;2023-05-10T13:56:20;24.00;26.70
43541;DHT22;29549;40.386;-3.710;2023-05-10T14:06:21;24.30;26.50
43541;DHT22;29549;40.386;-3.710;2023-05-10T14:16:22;24.60;25.60
43541;DHT22;29549;40.386;-3.710;2023-05-10T14:26:22;24.70;25.60
43541;DHT22;29549;40.386;-3.710;2023-05-10T14:36:23;24.80;25.60
43541;DHT22;29549;40.386;-3.710;2023-05-10T14:46:23;24.90;25.90
43541;DHT22;29549;40.386;-3.710;2023-05-10T14:56:24;25.30;24.80
43541;DHT22;29549;40.386;-3.710;2023-05-10T15:06:32;25.20;24.30
43541;DHT22;29549;40.386;-3.710;2023-05-10T15:16:34;25.00;24.50
43541;DHT22;29549;40.386;-3.710;2023-05-10T15:26:34;25.10;24.70
43541;DHT22;29549;40.386;-3.710;2023-05-10T15:36:35;25.10;25.40
43541;DHT22;29549;40.386;-3.710;2023-05-10T15:46:36;25.30;24.00
43541;DHT22;29549;40.386;-3.710;2023-05-10T15:56:38;25.30;23.50
43541;DHT22;29549;40.386;-3.710;2023-05-10T16:06:38;25.50;23.80
43541;DHT22;29549;40.386;-3.710;2023-05-10T16:16:39;25.50;24.60
43541;DHT22;29549;40.386;-3.710;2023-05-10T16:26:40;25.40;23.00
43541;DHT22;29549;40.386;-3.710;2023-05-10T16:36:41;25.60;22.10
43541;DHT22;29549;40.386;-3.710;2023-05-10T16:46:41;25.60;21.00
43541;DHT22;29549;40.386;-3.710;2023-05-10T16:56:43;25.60;20.30
43541;DHT22;29549;40.386;-3.710;2023-05-10T17:06:43;25.60;21.50
43541;DHT22;29549;40.386;-3.710;2023-05-10T17:16:44;25.60;19.20
43541;DHT22;29549;40.386;-3.710;2023-05-10T17:26:44;25.30;19.30
43541;DHT22;29549;40.386;-3.710;2023-05-10T17:36:45;25.10;18.20
43541;DHT22;29549;40.386;-3.710;2023-05-10T17:46:46;25.00;19.60
43541;DHT22;29549;40.386;-3.710;2023-05-10T17:56:47;24.90;18.50
43541;DHT22;29549;40.386;-3.710;2023-05-10T18:06:50;24.70;18.30
43541;DHT22;29549;40.386;-3.710;2023-05-10T18:16:50;24.50;17.80
43541;DHT22;29549;40.386;-3.710;2023-05-10T18:26:51;24.60;21.50
43541;DHT22;29549;40.386;-3.710;2023-05-10T18:36:51;24.50;22.40
43541;DHT22;29549;40.386;-3.710;2023-05-10T18:46:52;24.40;23.70
43541;DHT22;29549;40.386;-3.710;2023-05-10T18:56:53;24.40;22.60
43541;DHT22;29549;40.386;-3.710;2023-05-10T19:06:54;24.10;24.90
43541;DHT22;29549;40.386;-3.710;2023-05-10T19:16:55;24.00;24.10
43541;DHT22;29549;40.386;-3.710;2023-05-10T19:26:55;23.90;24.50
43541;DHT22;29549;40.386;-3.710;2023-05-10T19:36:57;23.60;24.60
43541;DHT22;29549;40.386;-3.710;2023-05-10T19:46:57;23.50;24.80
43541;DHT22;29549;40.386;-3.710;2023-05-10T19:56:59;23.20;23.60
43541;DHT22;29549;40.386;-3.710;2023-05-10T20:07:00;22.70;24.00
43541;DHT22;29549;40.386;-3.710;2023-05-10T20:17:00;22.40;24.40
43541;DHT22;29549;40.386;-3.710;2023-05-10T20:27:01;22.20;24.50
43541;DHT22;29549;40.386;-3.710;2023-05-10T20:37:02;22.00;24.80
43541;DHT22;29549;40.386;-3.710;2023-05-10T20:47:03;21.80;25.20
43541;DHT22;29549;40.386;-3.710;2023-05-10T20:57:03;21.50;25.60
43541;DHT22;29549;40.386;-3.710;2023-05-10T21:07:04;21.40;25.70
43541;DHT22;29549;40.386;-3.710;2023-05-10T21:17:04;21.30;26.30
43541;DHT22;29549;40.386;-3.710;2023-05-10T21:27:05;21.10;26.90
43541;DHT22;29549;40.386;-3.710;2023-05-10T21:37:06;21.00;27.00
43541;DHT22;29549;40.386;-3.710;2023-05-10T21:47:07;20.80;27.20
43541;DHT22;29549;40.386;-3.710;2023-05-10T21:57:08;20.70;27.30
43541;DHT22;29549;40.386;-3.710;2023-05-10T22:07:08;20.60;27.60
43541;DHT22;29549;40.386;-3.710;2023-05-10T22:17:09;20.40;28.20
43541;DHT22;29549;40.386;-3.710;2023-05-10T22:27:10;20.10;28.60
43541;DHT22;29549;40.386;-3.710;2023-05-10T22:37:10;20.00;28.90
43541;DHT22;29549;40.386;-3.710;2023-05-10T22:47:13;19.90;29.50
43541;DHT22;29549;40.386;-3.710;2023-05-10T22:57:13;19.50;31.10
43541;DHT22;29549;40.386;-3.710;2023-05-10T23:07:15;19.30;32.70
43541;DHT22;29549;40.386;-3.710;2023-05-10T23:17:16;19.00;34.00
43541;DHT22;29549;40.386;-3.710;2023-05-10T23:27:16;18.80;35.00
43541;DHT22;29549;40.386;-3.710;2023-05-10T23:37:17;18.60;35.90
43541;DHT22;29549;40.386;-3.710;2023-05-10T23:47:17;18.20;37.10
43541;DHT22;29549;40.386;-3.710;2023-05-10T23:57:18;18.00;37.80
